Flight Track Log - Related Links

Times and Time Zones

All times are in EST time to prevent confusion due to time zone crossing. See the N112BJ flight status page for this flight to view local times or setup timezone preferences in your user account.

Time Position Orientation Groundspeed Altitude Reporting Facility
EST Latitude Longitude Course Direction KTS MPH feet Rate Location/Type
Sun 02:37:16 PM 30.9225 -84.6581 48° Northeast 231 266 4,800  Level Jacksonville Center
Sun 02:38:16 PM 30.9628 -84.6053 48° Northeast 260 299 7,800 2,500 Climbing Jacksonville Center
Sun 02:39:16 PM 31.0336 -84.6261 346° North 255 293 9,800 1,100 Climbing Jacksonville Center
Sun 02:40:16 PM 31.1208 -84.6494 347° North 283 326 10,000 800 Climbing Jacksonville Center
Sun 02:41:16 PM 31.2164 -84.6781 346° North 316 364 11,400 1,750 Climbing Jacksonville Center
Sun 02:42:16 PM 31.3081 -84.7042 346° North 336 387 13,500 2,100 Climbing Jacksonville Center
Sun 02:43:16 PM 31.3994 -84.7328 345° North 336 387 15,600 2,050 Climbing Jacksonville Center
Sun 02:44:16 PM 31.4847 -84.7564 347° North 329 379 17,600 1,200 Climbing Jacksonville Center
Sun 02:45:16 PM 31.5761 -84.7825 346° North 324 373 18,000 209 Climbing Jacksonville Center
Sun 02:46:11 PM 31.6817 -84.8125 346° North 345 397 18,000  Level Atlanta Center
Sun 02:47:11 PM 31.7919 -84.8428 347° North 379 436 18,000  Level Atlanta Center
Sun 02:48:11 PM 31.8919 -84.8681 348° North 397 457 18,000  Level Atlanta Center
Sun 02:49:11 PM 32.0089 -84.8889 351° North 408 470 18,000  Level Atlanta Center
Sun 02:50:11 PM 32.1214 -84.9144 349° North 414 476 18,000  Level Atlanta Center
Sun 02:51:11 PM 32.2317 -84.9350 351° North 409 471 18,000  Level Atlanta Center
Sun 02:52:11 PM 32.3589 -84.9561 352° North 409 471 18,000  Level Atlanta Center
Sun 02:53:11 PM 32.4694 -84.9769 351° North 409 471 18,000  Level Atlanta Center
Sun 02:54:11 PM 32.5842 -84.9978 351° North 409 471 18,000 -550 Level Atlanta Center
Sun 02:55:11 PM 32.6967 -85.0189 351° North 409 471 16,900 -1,350 Descending Atlanta Center
Sun 02:56:11 PM 32.8050 -85.0497 347° North 401 461 15,300 -1,550 Descending Atlanta Center
Sun 02:57:11 PM 32.9092 -85.0706 350° North 391 450 13,800 -1,350 Descending Atlanta Center
Sun 02:58:11 PM 33.0008 -85.0889 350° North 379 436 12,600 -1,300 Descending Atlanta Center
Sun 02:59:11 PM 33.1031 -85.1053 352° North 367 422 11,200 -800 Descending Atlanta Center
Sun 03:00:11 PM 33.2072 -85.1286 349° North 376 433 11,000 -100 Descending Atlanta Center
Sun 03:01:11 PM 33.2947 -85.1372 355° North 337 388 11,000 -400 Level Atlanta Center
Sun 03:02:11 PM 33.3783 -85.1158 12° North 306 352 10,200 -1,550 Descending Atlanta Center
Sun 03:03:11 PM 33.4703 -85.0922 12° North 301 346 7,900 -2,250 Descending Atlanta Center
Sun 03:04:11 PM 33.5500 -85.0758 10° North 291 335 5,700 -2,250 Descending Atlanta Center
Sun 03:05:11 PM 33.6292 -85.0642 North 286 329 3,400 -1,400 Descending Atlanta Center
Sun 03:06:11 PM 33.6861 -85.0175 34° Northeast 245 282 2,900 -200 Descending Atlanta Center
Sun 03:07:11 PM 33.7178 -84.9478 61° Northeast 239 275 3,000  Climbing Atlanta Center
Sun 03:08:11 PM 33.7289 -84.8731 80° East 227 261 2,900  Descending Atlanta Center
Sun 03:09:11 PM 33.7419 -84.7983 78° East 227 261 3,000 46 Climbing Atlanta Center
Sun 03:10:21 PM 33.7500 -84.7167 83° East 202 232 3,000 -138 Level Atlanta TRACON
Sun 03:11:21 PM 33.7667 -84.6500 73° East 182 209 2,700 -571 Descending Atlanta TRACON
Sun 03:12:27 PM 33.7667 -84.6000 90° East 139 160 1,800 -694 Descending Atlanta TRACON
Sun 03:13:22 PM 33.7667 -84.5500 90° East 119 137 1,300 -545 Descending Atlanta TRACON
Sun 03:15:00 PM 33.7667 -84.5167 90° East  Level FlightAware
Sun 03:22:00 PM 33.7791 -84.5214 90° East  Level Estimated

Login

Don't have an account? Register now (free) for customized features, flight alerts, and more!